West Ferrisburgh, Vermont
Current Conditions -  °F | °C
As of 10:15 PM on Monday 20 Oct 2014 (Local Time) from K6B0 Reporting Station
Overcast Overcast  
Wind Chill: 10°   Ceiling: 7000
Heat Index: 10°   Visibility: 10mi
Dew Point:   Wind: 3mph
Humidity: 60%   Direction: 160°SSE
Pressure: 29.93"   Gusts: NA
Location:  44.0804°N, 73.3324°W
Report Text: K6B0 210215Z AUTO 16003KT 10SM OVC070 10/02 A2993 RMK AO2 T00970023
Loading
Personal Weather Stations






























Interactive Weather Map
Tropical Storm Tracking
New forecast layout! Learn more

10-Day Weather Forecast

Advertisements
Track Severe Weather on mobile